Time,TemperatureF,DewpointF,PressureIn,WindDirection,WindDirectionDegrees,WindSpeedMPH,WindSpeedGustMPH,Humidity,HourlyPrecipIn,Conditions,Clouds,dailyrainin,SoftwareType,DateUTC
2013-07-05 00:01:00,71.6,70.7,30.18,North,0,0.0,0.0,97,0.00,,,0.57,meteohub,2013-07-05 04:01:00,
2013-07-05 00:02:00,71.6,70.7,30.18,North,0,0.0,0.0,97,0.00,,,0.57,meteohub,2013-07-05 04:02:00,
2013-07-05 00:04:00,71.6,70.7,30.18,North,0,0.0,0.0,97,0.00,,,0.57,meteohub,2013-07-05 04:04:00,
2013-07-05 00:09:00,71.6,70.7,30.18,North,0,0.0,0.0,97,0.00,,,0.00,meteohub,2013-07-05 04:09:00,
2013-07-05 00:12:00,71.6,70.7,30.18,North,0,0.0,0.0,97,0.00,,,0.00,meteohub,2013-07-05 04:12:00,
2013-07-05 00:17:00,71.6,70.7,30.18,South,180,0.0,0.0,97,0.00,,,0.00,meteohub,2013-07-05 04:17:00,
2013-07-05 00:22:00,71.6,70.7,30.17,South,180,0.0,0.0,97,0.00,,,0.00,meteohub,2013-07-05 04:22:00,
2013-07-05 00:27:00,71.4,70.9,30.17,South,180,0.0,0.0,98,0.00,,,0.00,meteohub,2013-07-05 04:27:00,
2013-07-05 00:32:00,71.4,70.9,30.17,North,0,0.0,0.0,98,0.00,,,0.00,meteohub,2013-07-05 04:32:00,
2013-07-05 00:37:00,71.2,70.7,30.17,North,0,0.0,0.0,98,0.00,,,0.00,meteohub,2013-07-05 04:37:00,
2013-07-05 00:42:00,71.2,70.7,30.17,North,0,0.0,0.0,98,0.00,,,0.00,meteohub,2013-07-05 04:42:00,
2013-07-05 00:47:00,71.2,70.7,30.17,North,0,0.0,0.0,98,0.00,,,0.00,meteohub,2013-07-05 04:47:00,
2013-07-05 00:52:00,71.2,70.7,30.17,North,0,0.0,0.0,98,0.00,,,0.00,meteohub,2013-07-05 04:52:00,
2013-07-05 00:57:00,71.2,70.7,30.17,North,0,0.0,0.0,98,0.00,,,0.00,meteohub,2013-07-05 04:57:00,
2013-07-05 01:02:00,71.1,70.5,30.17,North,0,0.0,0.0,98,0.00,,,0.00,meteohub,2013-07-05 05:02:00,
2013-07-05 01:07:00,71.2,70.7,30.17,North,0,0.0,0.0,98,0.00,,,0.00,meteohub,2013-07-05 05:07:00,
2013-07-05 01:12:00,71.1,70.5,30.17,North,0,0.0,0.0,98,0.00,,,0.00,meteohub,2013-07-05 05:12:00,
2013-07-05 01:17:00,71.1,70.5,30.17,North,0,0.0,0.0,98,0.00,,,0.00,meteohub,2013-07-05 05:17:00,
2013-07-05 01:22:00,71.1,70.5,30.16,North,0,0.0,0.0,98,0.00,,,0.00,meteohub,2013-07-05 05:22:00,
2013-07-05 01:27:00,71.1,70.5,30.16,North,0,0.0,0.0,98,0.00,,,0.00,meteohub,2013-07-05 05:27:00,
2013-07-05 01:32:00,71.1,70.5,30.16,North,0,0.0,0.0,98,0.00,,,0.00,meteohub,2013-07-05 05:32:00,
2013-07-05 01:37:00,71.1,70.5,30.16,NW,315,0.0,0.0,98,0.00,,,0.00,meteohub,2013-07-05 05:37:00,
2013-07-05 01:42:00,71.1,70.5,30.16,NW,315,0.0,0.0,98,0.00,,,0.00,meteohub,2013-07-05 05:42:00,
2013-07-05 01:47:00,71.1,70.5,30.16,NW,315,0.0,0.0,98,0.00,,,0.00,meteohub,2013-07-05 05:47:00,
2013-07-05 01:52:00,71.1,70.5,30.15,NW,315,0.0,0.0,98,0.00,,,0.00,meteohub,2013-07-05 05:52:00,
2013-07-05 01:57:00,71.1,70.5,30.15,NW,315,0.0,0.0,98,0.00,,,0.00,meteohub,2013-07-05 05:57:00,
2013-07-05 02:02:00,71.1,70.5,30.15,NW,315,0.0,0.0,98,0.00,,,0.00,meteohub,2013-07-05 06:02:00,
2013-07-05 02:07:00,70.9,70.3,30.15,North,0,0.0,0.0,98,0.00,,,0.00,meteohub,2013-07-05 06:07:00,
2013-07-05 02:12:00,70.9,70.3,30.14,North,0,0.0,0.0,98,0.00,,,0.00,meteohub,2013-07-05 06:12:00,
2013-07-05 02:17:00,70.9,70.3,30.14,North,0,0.0,0.0,98,0.00,,,0.00,meteohub,2013-07-05 06:17:00,
2013-07-05 02:22:00,70.9,70.3,30.14,SE,135,0.0,0.0,98,0.00,,,0.00,meteohub,2013-07-05 06:22:00,
2013-07-05 02:27:00,70.9,70.3,30.14,SE,135,0.0,0.0,98,0.00,,,0.00,meteohub,2013-07-05 06:27:00,
2013-07-05 02:32:00,70.9,70.3,30.14,SE,135,0.0,0.0,98,0.00,,,0.00,meteohub,2013-07-05 06:32:00,
2013-07-05 02:37:00,70.7,70.2,30.14,SE,135,0.0,0.0,98,0.00,,,0.00,meteohub,2013-07-05 06:37:00,
2013-07-05 02:42:00,70.7,70.2,30.14,SE,135,0.0,0.0,98,0.00,,,0.00,meteohub,2013-07-05 06:42:00,
2013-07-05 02:47:00,70.7,70.2,30.14,SE,135,0.0,0.0,98,0.00,,,0.00,meteohub,2013-07-05 06:47:00,
2013-07-05 02:52:00,70.7,70.2,30.14,SE,135,0.0,0.0,98,0.00,,,0.00,meteohub,2013-07-05 06:52:00,
2013-07-05 02:57:00,70.7,70.2,30.14,SE,135,0.0,0.0,98,0.00,,,0.00,meteohub,2013-07-05 06:57:00,
2013-07-05 03:02:00,70.7,70.2,30.14,SE,135,0.0,0.0,98,0.00,,,0.00,meteohub,2013-07-05 07:02:00,
2013-07-05 03:07:00,70.7,70.2,30.13,SE,135,0.0,0.0,98,0.00,,,0.00,meteohub,2013-07-05 07:07:00,
2013-07-05 03:12:00,70.9,70.3,30.13,SE,135,0.0,0.0,98,0.00,,,0.00,meteohub,2013-07-05 07:12:00,
2013-07-05 03:17:00,71.1,70.5,30.12,SE,135,0.0,0.0,98,0.00,,,0.00,meteohub,2013-07-05 07:17:00,
2013-07-05 03:22:00,71.1,70.5,30.13,SE,135,0.0,0.0,98,0.00,,,0.00,meteohub,2013-07-05 07:22:00,
2013-07-05 03:27:00,71.1,70.5,30.12,SE,135,0.0,0.0,98,0.00,,,0.00,meteohub,2013-07-05 07:27:00,
2013-07-05 03:32:00,71.2,70.7,30.13,SE,135,0.0,0.0,98,0.00,,,0.00,meteohub,2013-07-05 07:32:00,
2013-07-05 03:37:00,71.2,70.7,30.12,SE,135,0.0,0.0,98,0.00,,,0.00,meteohub,2013-07-05 07:37:00,
2013-07-05 03:42:00,71.4,70.9,30.12,SE,135,0.0,0.0,98,0.00,,,0.00,meteohub,2013-07-05 07:42:00,
2013-07-05 03:47:00,71.4,70.9,30.12,SE,135,0.0,0.0,98,0.00,,,0.00,meteohub,2013-07-05 07:47:00,
2013-07-05 03:52:00,71.6,70.7,30.12,SE,135,0.0,0.0,97,0.00,,,0.00,meteohub,2013-07-05 07:52:00,
2013-07-05 03:57:00,71.6,70.7,30.12,SE,135,0.0,0.0,97,0.00,,,0.00,meteohub,2013-07-05 07:57:00,
2013-07-05 04:02:00,71.8,70.9,30.11,SE,135,0.0,0.0,97,0.00,,,0.00,meteohub,2013-07-05 08:02:00,
2013-07-05 04:07:00,71.8,70.9,30.12,SE,135,0.0,0.0,97,0.00,,,0.00,meteohub,2013-07-05 08:07:00,
2013-07-05 04:12:00,72.1,71.2,30.12,NE,45,0.0,0.0,97,0.00,,,0.00,meteohub,2013-07-05 08:12:00,
2013-07-05 04:17:00,72.5,71.6,30.12,NE,45,0.0,0.0,97,0.00,,,0.00,meteohub,2013-07-05 08:17:00,
2013-07-05 04:22:00,72.7,71.8,30.12,NE,45,0.0,0.0,97,0.00,,,0.00,meteohub,2013-07-05 08:22:00,
2013-07-05 04:27:00,72.7,71.8,30.12,NE,45,0.0,0.0,97,0.00,,,0.00,meteohub,2013-07-05 08:27:00,
2013-07-05 04:32:00,72.7,71.8,30.11,NE,45,0.0,0.0,97,0.00,,,0.00,meteohub,2013-07-05 08:32:00,
2013-07-05 04:37:00,72.9,72.0,30.12,NE,45,0.0,0.0,97,0.00,,,0.00,meteohub,2013-07-05 08:37:00,
2013-07-05 04:42:00,72.9,72.0,30.12,NE,45,0.0,0.0,97,0.00,,,0.00,meteohub,2013-07-05 08:42:00,
2013-07-05 04:47:00,72.9,72.0,30.11,NE,45,0.0,0.0,97,0.00,,,0.00,meteohub,2013-07-05 08:47:00,
2013-07-05 04:52:00,72.9,72.0,30.11,NE,45,0.0,0.0,97,0.00,,,0.00,meteohub,2013-07-05 08:52:00,
2013-07-05 04:57:00,72.9,72.0,30.11,NE,45,0.0,0.0,97,0.00,,,0.00,meteohub,2013-07-05 08:57:00,
2013-07-05 05:02:00,72.7,71.8,30.11,NE,45,0.0,0.0,97,0.00,,,0.00,meteohub,2013-07-05 09:02:00,
2013-07-05 05:07:00,72.7,71.8,30.11,NE,45,0.0,0.0,97,0.00,,,0.00,meteohub,2013-07-05 09:07:00,
2013-07-05 05:12:00,72.7,71.8,30.11,NE,45,0.0,0.0,97,0.00,,,0.00,meteohub,2013-07-05 09:12:00,
2013-07-05 05:17:00,72.7,71.8,30.11,NE,45,0.0,0.0,97,0.00,,,0.00,meteohub,2013-07-05 09:17:00,
2013-07-05 05:23:00,72.7,71.8,30.11,NE,45,0.0,0.0,97,0.00,,,0.00,meteohub,2013-07-05 09:23:00,
2013-07-05 05:29:00,72.7,71.8,30.11,NE,45,0.0,0.0,97,0.00,,,0.00,meteohub,2013-07-05 09:29:00,
2013-07-05 05:35:00,72.9,72.0,30.12,NE,45,0.0,0.0,97,0.00,,,0.00,meteohub,2013-07-05 09:35:00,
2013-07-05 05:40:00,72.9,72.0,30.11,NE,45,0.0,0.0,97,0.00,,,0.00,meteohub,2013-07-05 09:40:00,
2013-07-05 05:45:00,73.0,72.1,30.11,NE,45,0.0,0.0,97,0.00,,,0.00,meteohub,2013-07-05 09:45:00,
2013-07-05 05:51:00,73.2,72.3,30.11,NE,45,0.0,0.0,97,0.00,,,0.00,meteohub,2013-07-05 09:51:00,
2013-07-05 05:57:00,73.4,73.0,30.11,SW,225,0.0,0.0,99,0.00,,,0.00,meteohub,2013-07-05 09:57:00,
2013-07-05 06:02:00,73.4,73.0,30.12,SE,135,0.0,0.0,99,0.00,,,0.00,meteohub,2013-07-05 10:02:00,
2013-07-05 06:07:00,73.4,73.0,30.12,East,90,0.0,0.0,99,0.00,,,0.00,meteohub,2013-07-05 10:07:00,
2013-07-05 06:12:00,73.4,73.0,30.12,East,90,0.0,0.0,99,0.00,,,0.00,meteohub,2013-07-05 10:12:00,
2013-07-05 06:17:00,73.2,72.3,30.12,East,90,0.0,0.0,97,0.00,,,0.00,meteohub,2013-07-05 10:17:00,
2013-07-05 06:22:00,73.4,73.0,30.12,East,90,0.0,0.0,99,0.00,,,0.00,meteohub,2013-07-05 10:22:00,
2013-07-05 06:27:00,73.2,72.3,30.12,East,90,0.0,0.0,97,0.00,,,0.00,meteohub,2013-07-05 10:27:00,
2013-07-05 06:32:00,73.4,73.0,30.12,North,0,0.0,0.0,99,0.00,,,0.00,meteohub,2013-07-05 10:32:00,
2013-07-05 06:38:00,73.4,73.0,30.13,North,0,0.0,0.0,99,0.00,,,0.00,meteohub,2013-07-05 10:38:00,
2013-07-05 06:43:00,73.6,73.2,30.13,North,0,0.0,0.0,99,0.00,,,0.00,meteohub,2013-07-05 10:43:00,
2013-07-05 06:49:00,73.6,73.2,30.13,North,0,0.0,0.0,99,0.00,,,0.00,meteohub,2013-07-05 10:49:00,
2013-07-05 06:55:00,73.6,73.2,30.13,NE,45,0.0,0.0,99,0.00,,,0.00,meteohub,2013-07-05 10:55:00,
2013-07-05 07:00:00,73.8,73.4,30.14,NE,45,0.0,0.0,99,0.00,,,0.00,meteohub,2013-07-05 11:00:00,
2013-07-05 07:06:00,73.8,73.4,30.14,NE,45,0.0,0.0,99,0.00,,,0.00,meteohub,2013-07-05 11:06:00,
2013-07-05 07:12:00,73.8,73.4,30.14,NE,45,0.0,0.0,99,0.00,,,0.00,meteohub,2013-07-05 11:12:00,
2013-07-05 07:17:00,73.8,73.4,30.15,NE,45,0.0,0.0,99,0.00,,,0.00,meteohub,2013-07-05 11:17:00,
2013-07-05 07:22:00,74.1,73.8,30.14,NE,45,0.0,0.0,99,0.00,,,0.00,meteohub,2013-07-05 11:22:00,
2013-07-05 07:27:00,74.3,73.9,30.14,NE,45,0.0,0.0,99,0.00,,,0.00,meteohub,2013-07-05 11:27:00,
2013-07-05 07:33:00,74.5,74.1,30.14,NE,45,0.0,0.0,99,0.00,,,0.00,meteohub,2013-07-05 11:33:00,
2013-07-05 07:39:00,74.7,74.3,30.14,NE,45,0.0,0.0,99,0.00,,,0.00,meteohub,2013-07-05 11:39:00,
2013-07-05 07:44:00,74.8,74.5,30.14,East,90,1.0,0.0,99,0.00,,,0.00,meteohub,2013-07-05 11:44:00,
2013-07-05 07:49:00,75.2,74.8,30.15,East,90,1.0,1.0,99,0.00,,,0.00,meteohub,2013-07-05 11:49:00,
2013-07-05 07:54:00,75.4,75.0,30.15,SE,135,0.0,1.0,99,0.00,,,0.00,meteohub,2013-07-05 11:54:00,
2013-07-05 07:59:00,75.6,75.2,30.15,East,90,1.0,1.0,99,0.00,,,0.00,meteohub,2013-07-05 11:59:00,
2013-07-05 08:05:00,75.7,75.4,30.15,SE,135,1.0,2.0,99,0.00,,,0.00,meteohub,2013-07-05 12:05:00,
2013-07-05 08:10:00,75.9,75.6,30.15,East,90,0.0,2.0,99,0.00,,,0.00,meteohub,2013-07-05 12:10:00,
2013-07-05 08:16:00,76.1,75.7,30.15,East,90,0.0,2.0,99,0.00,,,0.00,meteohub,2013-07-05 12:16:00,
2013-07-05 08:22:00,76.3,75.9,30.15,East,90,0.0,2.0,99,0.00,,,0.00,meteohub,2013-07-05 12:22:00,
2013-07-05 08:27:00,76.5,76.1,30.15,SE,135,2.0,3.0,99,0.00,,,0.00,meteohub,2013-07-05 12:27:00,
2013-07-05 08:32:00,76.8,76.5,30.15,SE,135,0.0,3.0,99,0.00,,,0.00,meteohub,2013-07-05 12:32:00,
2013-07-05 08:37:00,77.0,76.6,30.15,East,90,2.0,2.0,99,0.00,,,0.00,meteohub,2013-07-05 12:37:00,
2013-07-05 08:42:00,77.0,76.6,30.15,East,90,1.0,3.0,99,0.00,,,0.00,meteohub,2013-07-05 12:42:00,
2013-07-05 08:47:00,77.2,76.8,30.15,SE,135,2.0,3.0,99,0.00,,,0.00,meteohub,2013-07-05 12:47:00,
2013-07-05 08:52:00,77.5,77.2,30.15,East,90,4.0,4.0,99,0.00,,,0.00,meteohub,2013-07-05 12:52:00,
2013-07-05 08:57:00,77.9,77.5,30.15,East,90,2.0,4.0,99,0.00,,,0.00,meteohub,2013-07-05 12:57:00,
2013-07-05 09:02:00,78.3,77.9,30.15,East,90,2.0,4.0,99,0.00,,,0.00,meteohub,2013-07-05 13:02:00,
2013-07-05 09:07:00,78.8,78.3,30.15,East,90,0.0,4.0,98,0.00,,,0.00,meteohub,2013-07-05 13:07:00,
2013-07-05 09:12:00,79.3,78.8,30.15,East,90,3.0,3.0,98,0.00,,,0.00,meteohub,2013-07-05 13:12:00,
2013-07-05 09:17:00,79.7,79.2,30.14,SE,135,3.0,4.0,98,0.00,,,0.00,meteohub,2013-07-05 13:17:00,
2013-07-05 09:23:00,80.4,79.5,30.14,East,90,2.0,4.0,97,0.00,,,0.00,meteohub,2013-07-05 13:23:00,
2013-07-05 09:30:00,81.1,79.2,30.15,NW,315,2.0,4.0,94,0.01,,,0.01,meteohub,2013-07-05 13:30:00,
2013-07-05 09:36:00,81.9,79.7,30.15,SW,225,3.0,4.0,93,0.01,,,0.01,meteohub,2013-07-05 13:36:00,
2013-07-05 09:41:00,82.2,79.0,30.14,NW,315,3.0,4.0,90,0.01,,,0.01,meteohub,2013-07-05 13:41:00,
2013-07-05 09:47:00,82.2,77.5,30.15,NE,45,4.0,4.0,86,0.01,,,0.01,meteohub,2013-07-05 13:47:00,
2013-07-05 09:52:00,82.6,78.3,30.15,South,180,1.0,8.0,87,0.01,,,0.01,meteohub,2013-07-05 13:52:00,
2013-07-05 09:57:00,83.3,78.6,30.15,South,180,3.0,8.0,86,0.01,,,0.01,meteohub,2013-07-05 13:57:00,
2013-07-05 10:02:00,83.7,78.6,30.15,East,90,2.0,5.0,85,0.01,,,0.01,meteohub,2013-07-05 14:02:00,
2013-07-05 10:07:00,84.0,79.0,30.15,SE,135,4.0,4.0,85,0.01,,,0.01,meteohub,2013-07-05 14:07:00,
2013-07-05 10:12:00,84.6,78.4,30.15,SE,135,4.0,4.0,82,0.01,,,0.01,meteohub,2013-07-05 14:12:00,
2013-07-05 10:17:00,84.4,77.5,30.15,South,180,2.0,7.0,80,0.01,,,0.01,meteohub,2013-07-05 14:17:00,
2013-07-05 10:22:00,84.2,77.4,30.15,East,90,3.0,7.0,80,0.01,,,0.01,meteohub,2013-07-05 14:22:00,
2013-07-05 10:28:00,84.7,77.9,30.16,NE,45,5.0,7.0,80,0.00,,,0.01,meteohub,2013-07-05 14:28:00,
2013-07-05 10:33:00,85.6,77.5,30.16,North,0,4.0,7.0,77,0.00,,,0.01,meteohub,2013-07-05 14:33:00,
2013-07-05 10:38:00,86.0,77.2,30.16,SE,135,5.0,7.0,75,0.00,,,0.01,meteohub,2013-07-05 14:38:00,
2013-07-05 10:44:00,86.0,76.8,30.15,SW,225,4.0,7.0,74,0.00,,,0.01,meteohub,2013-07-05 14:44:00,
2013-07-05 10:49:00,86.0,77.2,30.15,SW,225,3.0,7.0,75,0.00,,,0.01,meteohub,2013-07-05 14:49:00,
2013-07-05 10:55:00,86.0,76.3,30.16,South,180,2.0,6.0,73,0.00,,,0.01,meteohub,2013-07-05 14:55:00,
2013-07-05 11:00:00,86.4,76.6,30.16,East,90,4.0,8.0,73,0.00,,,0.01,meteohub,2013-07-05 15:00:00,
2013-07-05 11:06:00,86.7,77.0,30.15,East,90,5.0,8.0,73,0.00,,,0.01,meteohub,2013-07-05 15:06:00,
2013-07-05 11:11:00,86.5,76.8,30.15,SE,135,4.0,8.0,73,0.00,,,0.01,meteohub,2013-07-05 15:11:00,
2013-07-05 11:16:00,87.3,76.6,30.15,East,90,3.0,7.0,71,0.00,,,0.01,meteohub,2013-07-05 15:16:00,
2013-07-05 11:22:00,87.4,75.9,30.15,SE,135,2.0,8.0,69,0.00,,,0.01,meteohub,2013-07-05 15:22:00,
2013-07-05 11:27:00,87.3,75.4,30.16,SE,135,3.0,8.0,68,0.00,,,0.01,meteohub,2013-07-05 15:27:00,
2013-07-05 11:32:00,86.2,74.8,30.16,SW,225,10.0,10.0,69,0.00,,,0.01,meteohub,2013-07-05 15:32:00,
2013-07-05 11:37:00,85.6,76.5,30.16,South,180,4.0,10.0,74,0.00,,,0.01,meteohub,2013-07-05 15:37:00,
2013-07-05 11:42:00,85.6,76.5,30.16,SE,135,2.0,10.0,74,0.00,,,0.01,meteohub,2013-07-05 15:42:00,
2013-07-05 11:44:00,85.6,76.8,30.16,East,90,2.0,10.0,75,0.00,,,0.01,meteohub,2013-07-05 15:44:00,
2013-07-05 11:49:00,84.9,76.5,30.15,East,90,2.0,10.0,76,0.00,,,0.01,meteohub,2013-07-05 15:49:00,
2013-07-05 11:53:00,84.2,76.3,30.15,North,0,0.0,4.0,77,0.00,,,0.01,meteohub,2013-07-05 15:53:00,
2013-07-05 11:58:00,83.5,76.3,30.16,East,90,2.0,3.0,79,0.00,,,0.01,meteohub,2013-07-05 15:58:00,
2013-07-05 12:03:00,83.3,76.8,30.16,East,90,2.0,2.0,81,0.00,,,0.01,meteohub,2013-07-05 16:03:00,
2013-07-05 12:08:00,83.8,77.7,30.15,East,90,2.0,4.0,82,0.00,,,0.01,meteohub,2013-07-05 16:08:00,
2013-07-05 12:13:00,84.0,77.9,30.15,SW,225,4.0,4.0,82,0.00,,,0.01,meteohub,2013-07-05 16:13:00,
2013-07-05 12:18:00,83.8,77.4,30.16,NW,315,4.0,4.0,81,0.00,,,0.01,meteohub,2013-07-05 16:18:00,
2013-07-05 12:24:00,82.8,74.5,30.16,SE,135,4.0,5.0,76,0.00,,,0.01,meteohub,2013-07-05 16:24:00,
2013-07-05 12:29:00,81.7,73.4,30.15,SE,135,4.0,13.0,76,0.00,,,0.01,meteohub,2013-07-05 16:29:00,
2013-07-05 12:34:00,80.8,72.9,30.15,South,180,2.0,13.0,77,0.00,,,0.01,meteohub,2013-07-05 16:34:00,
2013-07-05 12:39:00,80.1,74.1,30.15,East,90,1.0,13.0,82,0.00,,,0.01,meteohub,2013-07-05 16:39:00,
2013-07-05 12:44:00,80.2,74.3,30.15,NE,45,0.0,6.0,82,0.00,,,0.01,meteohub,2013-07-05 16:44:00,
2013-07-05 12:49:00,80.2,74.3,30.15,East,90,0.0,4.0,82,0.00,,,0.01,meteohub,2013-07-05 16:49:00,
2013-07-05 12:54:00,80.6,74.3,30.15,NW,315,0.0,2.0,81,0.00,,,0.01,meteohub,2013-07-05 16:54:00,
2013-07-05 12:59:00,81.1,74.7,30.15,North,0,0.0,2.0,81,0.00,,,0.01,meteohub,2013-07-05 16:59:00,
2013-07-05 13:04:00,81.3,74.8,30.15,North,0,0.0,2.0,81,0.00,,,0.01,meteohub,2013-07-05 17:04:00,
2013-07-05 13:09:00,81.7,75.2,30.14,East,90,1.0,2.0,81,0.00,,,0.01,meteohub,2013-07-05 17:09:00,
2013-07-05 13:14:00,82.0,75.6,30.14,East,90,2.0,2.0,81,0.00,,,0.01,meteohub,2013-07-05 17:14:00,
2013-07-05 13:19:00,82.0,75.6,30.15,NE,45,2.0,2.0,81,0.00,,,0.01,meteohub,2013-07-05 17:19:00,
2013-07-05 13:24:00,82.0,76.3,30.14,NW,315,2.0,2.0,83,0.00,,,0.01,meteohub,2013-07-05 17:24:00,
2013-07-05 13:29:00,81.7,76.6,30.14,East,90,0.0,3.0,85,0.01,,,0.02,meteohub,2013-07-05 17:29:00,
2013-07-05 13:34:00,81.7,77.0,30.14,SW,225,2.0,3.0,86,0.01,,,0.02,meteohub,2013-07-05 17:34:00,
2013-07-05 13:39:00,81.3,76.6,30.14,NE,45,2.0,4.0,86,0.01,,,0.02,meteohub,2013-07-05 17:39:00,
2013-07-05 13:44:00,82.0,78.8,30.14,NE,45,2.0,4.0,90,0.02,,,0.04,meteohub,2013-07-05 17:44:00,
2013-07-05 13:49:00,82.8,80.2,30.13,East,90,2.0,4.0,92,0.02,,,0.04,meteohub,2013-07-05 17:49:00,
2013-07-05 13:54:00,84.0,81.9,30.13,SE,135,1.0,2.0,93,0.02,,,0.04,meteohub,2013-07-05 17:54:00,
2013-07-05 13:59:00,84.4,81.1,30.13,SW,225,2.0,2.0,90,0.02,,,0.04,meteohub,2013-07-05 17:59:00,
2013-07-05 14:04:00,85.3,81.3,30.13,NE,45,1.0,2.0,88,0.04,,,0.04,meteohub,2013-07-05 18:04:00,
2013-07-05 14:10:00,86.4,81.0,30.13,East,90,2.0,2.0,84,0.04,,,0.05,meteohub,2013-07-05 18:10:00,
2013-07-05 14:15:00,87.3,78.4,30.13,ENE,68,6.0,6.0,75,0.04,,,0.05,meteohub,2013-07-05 18:15:00,
2013-07-05 14:20:00,87.8,75.0,30.12,SE,135,3.0,6.0,66,0.04,,,0.05,meteohub,2013-07-05 18:20:00,
2013-07-05 14:25:00,88.3,75.9,30.13,SE,135,4.0,8.0,67,0.04,,,0.05,meteohub,2013-07-05 18:25:00,
2013-07-05 14:30:00,89.1,75.2,30.13,East,90,5.0,8.0,64,0.02,,,0.05,meteohub,2013-07-05 18:30:00,
2013-07-05 14:35:00,89.4,73.8,30.13,SE,135,7.0,11.0,60,0.02,,,0.05,meteohub,2013-07-05 18:35:00,
2013-07-05 14:40:00,89.1,72.3,30.12,SE,135,5.0,11.0,58,0.01,,,0.05,meteohub,2013-07-05 18:40:00,
2013-07-05 14:45:00,88.5,71.8,30.12,SW,225,5.0,11.0,58,0.01,,,0.05,meteohub,2013-07-05 18:45:00,
2013-07-05 14:50:00,88.5,72.9,30.12,SE,135,4.0,11.0,60,0.01,,,0.05,meteohub,2013-07-05 18:50:00,
2013-07-05 14:55:00,88.5,71.4,30.12,SE,135,3.0,8.0,57,0.01,,,0.05,meteohub,2013-07-05 18:55:00,
2013-07-05 15:00:00,88.9,72.7,30.12,SE,135,5.0,8.0,59,0.00,,,0.05,meteohub,2013-07-05 19:00:00,
2013-07-05 15:05:00,89.4,70.5,30.12,SW,225,5.0,11.0,54,0.00,,,0.05,meteohub,2013-07-05 19:05:00,
2013-07-05 15:10:00,89.8,70.9,30.12,ESE,113,6.0,14.0,54,0.00,,,0.05,meteohub,2013-07-05 19:10:00,
2013-07-05 15:15:00,90.1,71.2,30.11,SSE,158,8.0,14.0,54,0.00,,,0.05,meteohub,2013-07-05 19:15:00,
2013-07-05 15:20:00,90.1,71.8,30.11,East,90,4.0,11.0,55,0.00,,,0.05,meteohub,2013-07-05 19:20:00,
2013-07-05 15:25:00,90.1,71.8,30.11,SE,135,4.0,10.0,55,0.00,,,0.05,meteohub,2013-07-05 19:25:00,
2013-07-05 15:30:00,90.3,72.0,30.11,South,180,10.0,10.0,55,0.00,,,0.05,meteohub,2013-07-05 19:30:00,
2013-07-05 15:35:00,90.3,71.4,30.11,East,90,7.0,11.0,54,0.00,,,0.05,meteohub,2013-07-05 19:35:00,
2013-07-05 15:40:00,90.7,72.3,30.11,South,180,8.0,11.0,55,0.00,,,0.05,meteohub,2013-07-05 19:40:00,
2013-07-05 15:45:00,90.7,71.8,30.10,SE,135,6.0,11.0,54,0.00,,,0.05,meteohub,2013-07-05 19:45:00,
2013-07-05 15:50:00,90.7,72.3,30.10,South,180,6.0,11.0,55,0.00,,,0.05,meteohub,2013-07-05 19:50:00,
2013-07-05 15:55:00,91.0,73.8,30.10,SW,225,6.0,11.0,57,0.00,,,0.05,meteohub,2013-07-05 19:55:00,
2013-07-05 16:01:00,91.0,72.7,30.09,North,0,5.0,8.0,55,0.00,,,0.05,meteohub,2013-07-05 20:01:00,
2013-07-05 16:06:00,90.7,72.9,30.09,South,180,5.0,10.0,56,0.00,,,0.05,meteohub,2013-07-05 20:06:00,
2013-07-05 16:11:00,90.3,73.0,30.09,East,90,4.0,10.0,57,0.00,,,0.05,meteohub,2013-07-05 20:11:00,
2013-07-05 16:16:00,90.1,73.4,30.08,East,90,5.0,10.0,58,0.00,,,0.05,meteohub,2013-07-05 20:16:00,
2013-07-05 16:21:00,89.4,73.8,30.08,SE,135,4.0,8.0,60,0.00,,,0.05,meteohub,2013-07-05 20:21:00,
2013-07-05 16:26:00,89.1,72.9,30.08,South,180,4.0,8.0,59,0.00,,,0.05,meteohub,2013-07-05 20:26:00,
2013-07-05 16:31:00,88.7,72.5,30.08,SE,135,7.0,10.0,59,0.00,,,0.05,meteohub,2013-07-05 20:31:00,
2013-07-05 16:36:00,88.5,73.4,30.08,SE,135,2.0,10.0,61,0.00,,,0.05,meteohub,2013-07-05 20:36:00,
2013-07-05 16:41:00,88.5,73.8,30.08,SE,135,3.0,10.0,62,0.00,,,0.05,meteohub,2013-07-05 20:41:00,
2013-07-05 16:46:00,88.5,73.8,30.07,SW,225,3.0,8.0,62,0.00,,,0.05,meteohub,2013-07-05 20:46:00,
2013-07-05 16:51:00,88.3,73.6,30.07,East,90,4.0,8.0,62,0.00,,,0.05,meteohub,2013-07-05 20:51:00,
2013-07-05 16:56:00,88.2,73.9,30.08,South,180,8.0,8.0,63,0.00,,,0.05,meteohub,2013-07-05 20:56:00,
2013-07-05 17:01:00,88.0,73.4,30.08,NE,45,4.0,8.0,62,0.00,,,0.05,meteohub,2013-07-05 21:01:00,
2013-07-05 17:06:00,88.0,73.8,30.08,SW,225,5.0,8.0,63,0.00,,,0.05,meteohub,2013-07-05 21:06:00,
2013-07-05 17:11:00,87.8,73.6,30.08,SW,225,7.0,8.0,63,0.00,,,0.05,meteohub,2013-07-05 21:11:00,
2013-07-05 17:16:00,87.6,73.9,30.08,East,90,4.0,8.0,64,0.00,,,0.05,meteohub,2013-07-05 21:16:00,
2013-07-05 17:21:00,87.6,73.9,30.08,East,90,4.0,8.0,64,0.00,,,0.05,meteohub,2013-07-05 21:21:00,
2013-07-05 17:26:00,87.6,73.4,30.08,WNW,293,5.0,7.0,63,0.00,,,0.05,meteohub,2013-07-05 21:26:00,
2013-07-05 17:31:00,87.6,73.9,30.08,SE,135,5.0,14.0,64,0.00,,,0.05,meteohub,2013-07-05 21:31:00,
2013-07-05 17:36:00,88.0,73.4,30.08,West,270,5.0,14.0,62,0.00,,,0.05,meteohub,2013-07-05 21:36:00,
2013-07-05 17:41:00,87.6,73.4,30.09,East,90,3.0,14.0,63,0.00,,,0.05,meteohub,2013-07-05 21:41:00,
2013-07-05 17:47:00,87.8,73.6,30.08,NE,45,4.0,15.0,63,0.00,,,0.05,meteohub,2013-07-05 21:47:00,
2013-07-05 17:52:00,88.5,74.3,30.08,SE,135,7.0,15.0,63,0.00,,,0.05,meteohub,2013-07-05 21:52:00,
2013-07-05 17:57:00,88.7,73.0,30.08,SW,225,8.0,15.0,60,0.00,,,0.05,meteohub,2013-07-05 21:57:00,
2013-07-05 18:02:00,88.7,73.6,30.09,SE,135,2.0,12.0,61,0.00,,,0.05,meteohub,2013-07-05 22:02:00,
2013-07-05 18:07:00,89.1,74.3,30.09,South,180,7.0,12.0,62,0.00,,,0.05,meteohub,2013-07-05 22:07:00,
2013-07-05 18:12:00,89.1,73.9,30.09,South,180,7.0,8.0,61,0.00,,,0.05,meteohub,2013-07-05 22:12:00,
2013-07-05 18:17:00,88.2,73.4,30.09,East,90,4.0,10.0,62,0.00,,,0.05,meteohub,2013-07-05 22:17:00,
2013-07-05 18:22:00,87.6,73.4,30.09,SW,225,5.0,10.0,63,0.00,,,0.05,meteohub,2013-07-05 22:22:00,
2013-07-05 18:27:00,87.4,73.8,30.09,South,180,3.0,9.0,64,0.00,,,0.05,meteohub,2013-07-05 22:27:00,
2013-07-05 18:32:00,86.9,73.2,30.09,South,180,4.0,9.0,64,0.00,,,0.05,meteohub,2013-07-05 22:32:00,
2013-07-05 18:37:00,86.5,72.9,30.09,East,90,3.0,9.0,64,0.00,,,0.05,meteohub,2013-07-05 22:37:00,
2013-07-05 18:42:00,86.2,73.0,30.09,NW,315,3.0,8.0,65,0.00,,,0.05,meteohub,2013-07-05 22:42:00,
2013-07-05 18:45:00,85.8,73.2,30.09,SE,135,4.0,8.0,66,0.00,,,0.05,meteohub,2013-07-05 22:45:00,
2013-07-05 18:50:00,85.6,73.0,30.09,SE,135,4.0,8.0,66,0.00,,,0.05,meteohub,2013-07-05 22:50:00,
2013-07-05 18:56:00,85.3,72.7,30.10,SE,135,7.0,8.0,66,0.00,,,0.05,meteohub,2013-07-05 22:56:00,
2013-07-05 19:01:00,84.9,72.7,30.10,East,90,4.0,9.0,67,0.00,,,0.05,meteohub,2013-07-05 23:01:00,
2013-07-05 19:06:00,84.7,72.5,30.10,SE,135,2.0,9.0,67,0.00,,,0.05,meteohub,2013-07-05 23:06:00,
2013-07-05 19:11:00,84.6,72.9,30.11,NE,45,5.0,9.0,68,0.00,,,0.05,meteohub,2013-07-05 23:11:00,
2013-07-05 19:16:00,84.4,72.7,30.11,NE,45,4.0,7.0,68,0.00,,,0.05,meteohub,2013-07-05 23:16:00,
2013-07-05 19:21:00,84.2,72.5,30.10,NE,45,3.0,6.0,68,0.00,,,0.05,meteohub,2013-07-05 23:21:00,
2013-07-05 19:26:00,84.2,72.5,30.10,NE,45,2.0,16.0,68,0.00,,,0.05,meteohub,2013-07-05 23:26:00,
2013-07-05 19:31:00,84.0,73.2,30.10,South,180,2.0,16.0,70,0.00,,,0.05,meteohub,2013-07-05 23:31:00,
2013-07-05 19:36:00,83.8,73.4,30.10,South,180,4.0,5.0,71,0.00,,,0.05,meteohub,2013-07-05 23:36:00,
2013-07-05 19:41:00,83.7,73.2,30.10,SE,135,4.0,7.0,71,0.00,,,0.05,meteohub,2013-07-05 23:41:00,
2013-07-05 19:46:00,83.5,73.6,30.10,East,90,3.0,7.0,72,0.00,,,0.05,meteohub,2013-07-05 23:46:00,
2013-07-05 19:51:00,83.3,73.4,30.10,West,270,2.0,7.0,72,0.00,,,0.05,meteohub,2013-07-05 23:51:00,
2013-07-05 19:56:00,83.1,73.6,30.11,SE,135,6.0,6.0,73,0.00,,,0.05,meteohub,2013-07-05 23:56:00,
2013-07-05 20:01:00,82.9,73.4,30.12,SE,135,2.0,6.0,73,0.00,,,0.05,meteohub,2013-07-06 00:01:00,
2013-07-05 20:06:00,82.8,73.6,30.12,SE,135,3.0,6.0,74,0.00,,,0.05,meteohub,2013-07-06 00:06:00,
2013-07-05 20:11:00,82.8,73.6,30.12,East,90,4.0,6.0,74,0.00,,,0.05,meteohub,2013-07-06 00:11:00,
2013-07-05 20:16:00,82.6,73.8,30.12,East,90,4.0,4.0,75,0.00,,,0.05,meteohub,2013-07-06 00:16:00,
2013-07-05 20:21:00,82.6,73.8,30.12,East,90,3.0,4.0,75,0.00,,,0.05,meteohub,2013-07-06 00:21:00,
2013-07-05 20:22:00,82.6,73.8,30.12,East,90,3.0,4.0,75,0.00,,,0.05,meteohub,2013-07-06 00:22:00,
2013-07-05 20:27:00,82.4,73.8,30.12,SE,135,1.0,4.0,75,0.00,,,0.05,meteohub,2013-07-06 00:27:00,
2013-07-05 20:32:00,82.0,73.8,30.12,East,90,2.0,4.0,76,0.00,,,0.05,meteohub,2013-07-06 00:32:00,
2013-07-05 20:37:00,81.9,73.9,30.12,SE,135,4.0,4.0,77,0.00,,,0.05,meteohub,2013-07-06 00:37:00,
2013-07-05 20:42:00,81.9,73.9,30.12,NE,45,2.0,4.0,77,0.00,,,0.05,meteohub,2013-07-06 00:42:00,
2013-07-05 20:47:00,81.5,73.6,30.12,NE,45,2.0,4.0,77,0.00,,,0.05,meteohub,2013-07-06 00:47:00,
2013-07-05 20:52:00,81.5,73.6,30.12,NNW,338,3.0,4.0,77,0.00,,,0.05,meteohub,2013-07-06 00:52:00,
2013-07-05 20:57:00,81.5,73.9,30.13,SE,135,2.0,3.0,78,0.00,,,0.05,meteohub,2013-07-06 00:57:00,
2013-07-05 21:02:00,81.3,73.8,30.13,East,90,2.0,3.0,78,0.00,,,0.05,meteohub,2013-07-06 01:02:00,
2013-07-05 21:07:00,81.3,73.8,30.12,SE,135,2.0,4.0,78,0.00,,,0.05,meteohub,2013-07-06 01:07:00,
2013-07-05 21:12:00,81.1,73.6,30.12,South,180,4.0,4.0,78,0.00,,,0.05,meteohub,2013-07-06 01:12:00,
2013-07-05 21:17:00,81.1,73.6,30.13,NE,45,8.0,8.0,78,0.00,,,0.05,meteohub,2013-07-06 01:17:00,
2013-07-05 21:22:00,81.1,73.6,30.12,East,90,4.0,8.0,78,0.00,,,0.05,meteohub,2013-07-06 01:22:00,
2013-07-05 21:27:00,81.1,73.9,30.13,East,90,2.0,8.0,79,0.00,,,0.05,meteohub,2013-07-06 01:27:00,
2013-07-05 21:32:00,81.0,73.8,30.13,SE,135,5.0,8.0,79,0.00,,,0.05,meteohub,2013-07-06 01:32:00,
2013-07-05 21:37:00,81.0,73.8,30.13,SE,135,3.0,6.0,79,0.00,,,0.05,meteohub,2013-07-06 01:37:00,
2013-07-05 21:42:00,81.0,73.8,30.13,East,90,2.0,6.0,79,0.00,,,0.05,meteohub,2013-07-06 01:42:00,
2013-07-05 21:47:00,80.8,73.9,30.13,NE,45,2.0,6.0,80,0.00,,,0.05,meteohub,2013-07-06 01:47:00,
2013-07-05 21:52:00,80.8,73.9,30.13,East,90,2.0,4.0,80,0.00,,,0.05,meteohub,2013-07-06 01:52:00,
2013-07-05 21:57:00,80.6,73.9,30.13,East,90,2.0,4.0,80,0.00,,,0.05,meteohub,2013-07-06 01:57:00,
2013-07-05 22:02:00,80.6,74.3,30.13,North,0,2.0,9.0,81,0.00,,,0.05,meteohub,2013-07-06 02:02:00,
2013-07-05 22:07:00,80.4,74.5,30.13,SE,135,3.0,9.0,82,0.00,,,0.05,meteohub,2013-07-06 02:07:00,
2013-07-05 22:12:00,80.4,74.5,30.14,East,90,2.0,9.0,82,0.00,,,0.05,meteohub,2013-07-06 02:12:00,
2013-07-05 22:17:00,80.2,74.7,30.14,East,90,2.0,4.0,83,0.00,,,0.05,meteohub,2013-07-06 02:17:00,
2013-07-05 22:22:00,80.2,74.7,30.14,East,90,2.0,4.0,83,0.00,,,0.05,meteohub,2013-07-06 02:22:00,
2013-07-05 22:27:00,80.1,74.5,30.14,SE,135,2.0,2.0,83,0.00,,,0.05,meteohub,2013-07-06 02:27:00,
2013-07-05 22:32:00,80.1,74.5,30.14,East,90,3.0,3.0,83,0.00,,,0.05,meteohub,2013-07-06 02:32:00,
2013-07-05 22:37:00,79.9,74.3,30.14,South,180,11.0,11.0,83,0.00,,,0.05,meteohub,2013-07-06 02:37:00,
2013-07-05 22:42:00,79.9,74.7,30.14,SW,225,4.0,11.0,84,0.00,,,0.05,meteohub,2013-07-06 02:42:00,
2013-07-05 22:47:00,79.9,74.7,30.15,East,90,2.0,11.0,84,0.00,,,0.05,meteohub,2013-07-06 02:47:00,
2013-07-05 22:52:00,79.9,74.7,30.15,East,90,2.0,11.0,84,0.00,,,0.05,meteohub,2013-07-06 02:52:00,
2013-07-05 22:57:00,79.7,74.5,30.15,East,90,2.0,4.0,84,0.00,,,0.05,meteohub,2013-07-06 02:57:00,
2013-07-05 23:02:00,79.7,74.5,30.15,SE,135,0.0,3.0,84,0.00,,,0.05,meteohub,2013-07-06 03:02:00,
2013-07-05 23:07:00,79.5,74.3,30.15,East,90,2.0,3.0,84,0.00,,,0.05,meteohub,2013-07-06 03:07:00,
2013-07-05 23:12:00,79.5,74.7,30.15,East,90,0.0,3.0,85,0.00,,,0.05,meteohub,2013-07-06 03:12:00,
2013-07-05 23:17:00,79.5,74.7,30.15,SE,135,1.0,3.0,85,0.00,,,0.05,meteohub,2013-07-06 03:17:00,
2013-07-05 23:22:00,79.3,74.5,30.15,East,90,2.0,3.0,85,0.00,,,0.05,meteohub,2013-07-06 03:22:00,
2013-07-05 23:27:00,79.3,74.5,30.15,East,90,4.0,4.0,85,0.00,,,0.05,meteohub,2013-07-06 03:27:00,
2013-07-05 23:32:00,79.3,74.5,30.14,SE,135,2.0,4.0,85,0.00,,,0.05,meteohub,2013-07-06 03:32:00,
2013-07-05 23:37:00,79.3,74.5,30.14,East,90,2.0,4.0,85,0.00,,,0.05,meteohub,2013-07-06 03:37:00,
2013-07-05 23:41:00,79.2,74.3,30.14,SE,135,1.0,4.0,85,0.00,,,0.05,meteohub,2013-07-06 03:41:00,
2013-07-05 23:46:00,79.2,74.3,30.14,SE,135,1.0,4.0,85,0.00,,,0.05,meteohub,2013-07-06 03:46:00,
2013-07-05 23:51:00,79.0,74.5,30.14,East,90,1.0,4.0,86,0.00,,,0.05,meteohub,2013-07-06 03:51:00,
2013-07-05 23:54:00,79.0,74.5,30.14,East,90,2.0,4.0,86,0.00,,,0.05,meteohub,2013-07-06 03:54:00,
2013-07-05 23:59:00,79.0,74.5,30.14,East,90,4.0,4.0,86,0.00,,,0.05,meteohub,2013-07-06 03:59:00,